Time;durP1;ratioP1;P1;durP2;ratioP2;P2;SDS_P1;SDS_P2;PMS_P1;PMS_P2;Temp;Humidity;BMP_temperature;BMP_pressure;BME280_temperature;BME280_humidity;BME280_pressure;Samples;Min_cycle;Max_cycle;Signal;HPM_P1;HPM_P2
2021/08/19 00:01:40;;;;;;;23.98;19.20;;;;;;;20.94;73.51;99164.91;5028986;28;20594;-55
2021/08/19 00:04:06;;;;;;;23.23;19.40;;;;;;;21.25;73.04;99211.63;5028642;28;20109;-51
2021/08/19 00:06:32;;;;;;;22.73;18.42;;;;;;;21.28;72.68;99208.47;5011990;28;20085;-58
2021/08/19 00:08:57;;;;;;;22.70;17.63;;;;;;;21.35;72.23;99203.88;5009644;28;20037;-55
2021/08/19 00:11:23;;;;;;;20.98;16.83;;;;;;;21.45;71.92;99214.34;5009262;28;20030;-51
2021/08/19 00:13:48;;;;;;;22.48;17.95;;;;;;;21.47;71.93;99211.41;5011082;28;20030;-52
2021/08/19 00:16:15;;;;;;;22.35;18.08;;;;;;;21.48;71.73;99213.09;5012147;28;20485;-56
2021/08/19 00:18:40;;;;;;;24.60;16.63;;;;;;;21.44;71.64;99206.38;5011467;28;20038;-56
2021/08/19 00:21:06;;;;;;;17.10;14.85;;;;;;;21.45;71.62;99208.88;5011243;28;20532;-53
2021/08/19 00:23:32;;;;;;;18.90;16.52;;;;;;;21.44;71.46;99209.94;5011025;28;20278;-56
2021/08/19 00:25:58;;;;;;;17.88;15.40;;;;;;;21.48;71.67;99219.34;5012091;28;20426;-56
2021/08/19 00:28:23;;;;;;;18.02;15.32;;;;;;;21.51;71.75;99215.38;5011368;28;20110;-55
2021/08/19 00:30:49;;;;;;;20.55;15.43;;;;;;;21.47;71.39;99205.97;5010897;28;20036;-54
2021/08/19 00:33:14;;;;;;;19.48;16.13;;;;;;;21.57;71.52;99222.72;5010884;28;20057;-59
2021/08/19 00:35:40;;;;;;;18.60;15.32;;;;;;;21.57;71.65;99213.69;5010893;28;20029;-55
2021/08/19 00:38:06;;;;;;;18.10;15.25;;;;;;;21.59;71.35;99226.06;5012169;28;20034;-54
2021/08/19 00:40:32;;;;;;;20.77;16.27;;;;;;;21.60;71.29;99226.91;5010943;28;20088;-58
2021/08/19 00:43:05;;;;;;;19.30;15.40;;;;;;;21.61;71.16;99229.41;5010719;28;20084;-55
2021/08/19 00:45:32;;;;;;;17.73;15.13;;;;;;;21.56;71.02;99234.66;5011123;28;20470;-55
2021/08/19 00:47:58;;;;;;;17.73;15.73;;;;;;;21.54;71.45;99222.28;5011067;28;20121;-57
2021/08/19 00:50:24;;;;;;;17.77;15.45;;;;;;;21.54;71.56;99222.28;5011185;28;20104;-53
2021/08/19 00:52:50;;;;;;;21.15;15.35;;;;;;;21.50;71.53;99217.25;5010788;28;20025;-55
2021/08/19 00:55:16;;;;;;;17.55;15.30;;;;;;;21.54;71.58;99223.13;5010452;28;20026;-57
2021/08/19 00:57:43;;;;;;;18.20;14.93;;;;;;;21.53;71.37;99218.72;5016552;28;20041;-57
2021/08/19 01:00:10;;;;;;;19.55;15.63;;;;;;;21.57;71.28;99228.16;5030285;28;20175;-59
2021/08/19 01:02:38;;;;;;;17.95;14.02;;;;;;;21.53;70.71;99216.00;5030195;28;20086;-58
2021/08/19 01:05:05;;;;;;;16.60;13.88;;;;;;;21.51;70.59;99215.38;5030162;28;20546;-53
2021/08/19 01:07:31;;;;;;;17.10;13.90;;;;;;;21.47;70.93;99206.78;5033034;28;20037;-54
2021/08/19 01:09:59;;;;;;;16.67;14.07;;;;;;;21.51;70.68;99229.00;5033860;28;20045;-57
2021/08/19 01:12:25;;;;;;;17.80;14.02;;;;;;;21.48;70.82;99218.53;5034465;28;20033;-54
2021/08/19 01:14:50;;;;;;;15.25;13.63;;;;;;;21.47;70.79;99219.59;5033926;28;20124;-59
2021/08/19 01:17:17;;;;;;;16.23;12.80;;;;;;;21.45;70.72;99222.50;5033988;28;20026;-54
2021/08/19 01:19:45;;;;;;;16.77;13.60;;;;;;;21.52;70.65;99225.22;5032340;28;20163;-55
2021/08/19 01:22:11;;;;;;;16.65;13.65;;;;;;;21.48;70.83;99224.81;5033805;28;20488;-51
2021/08/19 01:24:37;;;;;;;14.85;13.30;;;;;;;21.48;70.48;99215.81;5032801;28;20030;-56
2021/08/19 01:27:03;;;;;;;16.67;13.48;;;;;;;21.47;70.50;99211.41;5033838;28;20041;-52
2021/08/19 01:29:28;;;;;;;18.45;13.88;;;;;;;21.46;70.49;99213.28;5025206;28;20036;-51
2021/08/19 01:32:01;;;;;;;14.68;12.30;;;;;;;21.54;70.07;99214.97;4996387;28;20485;-55
2021/08/19 01:34:27;;;;;;;14.38;12.82;;;;;;;21.48;70.60;99215.81;5014315;28;20544;-52
2021/08/19 01:36:52;;;;;;;16.73;12.60;;;;;;;21.45;70.42;99214.34;5014421;28;20049;-56
2021/08/19 01:39:18;;;;;;;14.98;11.98;;;;;;;21.46;70.38;99210.56;5014631;28;20029;-55
2021/08/19 01:41:44;;;;;;;16.88;13.00;;;;;;;21.45;70.37;99208.88;5013954;28;20442;-55
2021/08/19 01:44:09;;;;;;;15.38;13.02;;;;;;;21.42;70.88;99203.88;5013929;28;20029;-54
2021/08/19 01:46:35;;;;;;;15.02;12.85;;;;;;;21.30;70.70;99190.03;5013794;28;20105;-54
2021/08/19 01:49:02;;;;;;;13.98;12.55;;;;;;;21.06;70.69;99156.97;5013856;28;20037;-63
2021/08/19 01:51:28;;;;;;;17.67;13.68;;;;;;;21.39;70.95;99215.19;5030533;28;20026;-53
2021/08/19 01:53:53;;;;;;;15.13;12.98;;;;;;;21.33;71.07;99200.50;5033430;28;20033;-54
2021/08/19 01:56:23;;;;;;;17.45;13.30;;;;;;;21.39;71.02;99219.78;5033392;28;20029;-55
2021/08/19 01:58:49;;;;;;;14.05;12.52;;;;;;;21.35;71.17;99219.38;5033149;28;20026;-54
2021/08/19 02:01:19;;;;;;;15.32;12.68;;;;;;;21.25;70.89;99192.56;5031481;28;20028;-56
2021/08/19 02:03:44;;;;;;;16.17;12.40;;;;;;;21.32;71.07;99215.19;5033561;28;20072;-55
2021/08/19 02:06:10;;;;;;;16.60;12.20;;;;;;;21.30;71.05;99210.97;5033342;28;20113;-56
2021/08/19 02:08:35;;;;;;;16.98;13.45;;;;;;;21.23;71.29;99208.28;5033000;28;20121;-52
2021/08/19 02:11:01;;;;;;;16.30;13.38;;;;;;;21.23;71.78;99209.09;5031314;28;20434;-52
2021/08/19 02:13:26;;;;;;;16.40;13.43;;;;;;;21.21;71.57;99207.63;5033245;28;20521;-52
2021/08/19 02:15:52;;;;;;;16.05;13.93;;;;;;;21.17;71.62;99220.84;5033014;28;20025;-53
2021/08/19 02:18:17;;;;;;;16.30;13.77;;;;;;;21.15;72.03;99219.34;5032386;28;20033;-53
2021/08/19 02:20:43;;;;;;;19.20;13.45;;;;;;;21.13;72.17;99235.06;5032823;28;20124;-53
2021/08/19 02:23:08;;;;;;;15.35;13.73;;;;;;;21.13;72.30;99233.19;5030816;28;20452;-53
2021/08/19 02:25:34;;;;;;;19.92;13.30;;;;;;;21.16;71.85;99229.19;5031667;28;20037;-53
2021/08/19 02:27:59;;;;;;;18.52;14.20;;;;;;;21.18;72.00;99229.81;5033076;28;20038;-53
2021/08/19 02:30:25;;;;;;;17.48;14.05;;;;;;;21.20;71.79;99235.88;5032588;28;20109;-54
2021/08/19 02:32:55;;;;;;;21.48;15.07;;;;;;;21.19;71.66;99236.94;5021212;28;20038;-52
2021/08/19 02:35:22;;;;;;;18.52;13.82;;;;;;;21.01;72.17;99215.78;5011942;28;20045;-60
2021/08/19 02:37:48;;;;;;;19.23;13.55;;;;;;;21.05;72.42;99230.63;5012748;28;20109;-54
2021/08/19 02:40:14;;;;;;;17.52;14.35;;;;;;;21.07;72.33;99234.84;5012383;28;20128;-54
2021/08/19 02:42:39;;;;;;;19.15;14.07;;;;;;;21.04;72.48;99239.84;5014019;28;20072;-54
2021/08/19 02:45:05;;;;;;;19.23;14.65;;;;;;;21.01;72.68;99238.41;5012564;28;20029;-56
2021/08/19 02:47:31;;;;;;;18.10;14.90;;;;;;;21.04;72.87;99243.44;5012825;28;20076;-56
2021/08/19 02:49:56;;;;;;;20.20;14.80;;;;;;;21.07;72.74;99240.28;5012615;28;20405;-55
2021/08/19 02:52:23;;;;;;;16.92;13.73;;;;;;;21.00;72.82;99220.41;5012144;28;20098;-54
2021/08/19 02:54:49;;;;;;;16.67;13.65;;;;;;;21.18;72.47;99244.28;5030447;28;20033;-52
2021/08/19 02:57:15;;;;;;;21.90;14.05;;;;;;;21.24;72.14;99242.63;5032044;28;20086;-58
2021/08/19 02:59:40;;;;;;;15.57;13.73;;;;;;;21.24;71.64;99242.63;5031074;28;20381;-52
2021/08/19 03:02:06;;;;;;;15.90;13.73;;;;;;;21.28;71.43;99238.44;5031840;28;20025;-52
2021/08/19 03:04:31;;;;;;;17.02;13.65;;;;;;;21.35;71.19;99241.97;5018564;28;20030;-53
2021/08/19 03:06:56;;;;;;;16.35;14.13;;;;;;;21.34;71.13;99240.31;5011954;28;20030;-53
2021/08/19 03:09:22;;;;;;;15.52;13.40;;;;;;;21.40;71.31;99252.25;5012011;28;20109;-54
2021/08/19 03:11:47;;;;;;;16.15;13.23;;;;;;;21.43;71.08;99254.56;5011909;28;20176;-55
2021/08/19 03:14:13;;;;;;;14.70;13.07;;;;;;;21.46;71.04;99254.13;5017960;28;20026;-54
2021/08/19 03:16:39;;;;;;;16.75;13.45;;;;;;;21.49;70.51;99252.88;5031620;28;20034;-52
2021/08/19 03:19:04;;;;;;;15.45;12.90;;;;;;;21.42;70.40;99239.25;5031386;28;20452;-51
2021/08/19 03:21:30;;;;;;;15.57;13.35;;;;;;;21.54;70.57;99253.09;5031522;28;20088;-52
2021/08/19 03:23:55;;;;;;;14.30;12.80;;;;;;;21.54;70.52;99257.69;5030055;28;20387;-51
2021/08/19 03:26:21;;;;;;;17.67;12.73;;;;;;;21.57;70.28;99249.94;5030673;28;20060;-53
2021/08/19 03:28:46;;;;;;;18.92;13.77;;;;;;;21.61;70.24;99250.38;5031077;28;20061;-54
2021/08/19 03:31:12;;;;;;;18.20;13.10;;;;;;;21.72;70.15;99246.19;5031560;28;20075;-56
2021/08/19 03:33:38;;;;;;;16.48;13.65;;;;;;;21.87;69.62;99244.06;5031266;28;20381;-58
2021/08/19 03:36:05;;;;;;;15.07;12.70;;;;;;;22.03;68.66;99253.66;5029666;28;20385;-54
2021/08/19 03:38:31;;;;;;;15.40;12.88;;;;;;;22.09;68.59;99241.09;5031274;28;20040;-55
2021/08/19 03:40:56;;;;;;;14.18;12.00;;;;;;;22.17;68.13;99242.75;5031561;28;20826;-53
2021/08/19 03:43:22;;;;;;;14.48;12.15;;;;;;;22.20;68.26;99242.31;5031184;28;20132;-54
2021/08/19 03:45:48;;;;;;;19.23;13.32;;;;;;;22.28;67.77;99238.50;5024570;28;20036;-57
2021/08/19 03:48:14;;;;;;;17.60;12.80;;;;;;;22.44;67.24;99243.50;5011560;28;20441;-53
2021/08/19 03:50:40;;;;;;;12.80;11.45;;;;;;;22.69;66.28;99244.66;5011804;28;20117;-53
2021/08/19 03:53:05;;;;;;;15.13;12.88;;;;;;;23.09;64.94;99237.06;5020734;28;20512;-52
2021/08/19 03:55:31;;;;;;;14.00;12.48;;;;;;;23.33;63.83;99234.59;5030894;28;20029;-56
2021/08/19 03:57:56;;;;;;;17.63;12.77;;;;;;;23.49;63.36;99232.38;5031308;28;20034;-53
2021/08/19 04:00:22;;;;;;;14.85;12.02;;;;;;;23.72;62.68;99225.44;5031133;28;20363;-56
2021/08/19 04:02:47;;;;;;;15.55;12.10;;;;;;;24.33;60.42;99225.66;5029226;28;20413;-53
2021/08/19 04:05:13;;;;;;;16.58;12.10;;;;;;;24.83;58.67;99230.06;5030533;28;20079;-55
2021/08/19 04:07:38;;;;;;;15.63;12.10;;;;;;;25.25;57.49;99237.44;5030848;28;20366;-61
2021/08/19 04:10:05;;;;;;;15.98;11.65;;;;;;;26.21;54.71;99230.13;5031309;28;20034;-51
2021/08/19 04:12:30;;;;;;;10.95;9.85;;;;;;;27.53;51.08;99227.63;5030591;28;20036;-51
2021/08/19 04:14:56;;;;;;;14.85;10.27;;;;;;;28.79;47.64;99230.72;5027494;28;20033;-53
2021/08/19 04:17:21;;;;;;;13.13;10.63;;;;;;;29.65;44.90;99219.88;5030968;28;20378;-56
2021/08/19 04:19:47;;;;;;;14.40;10.50;;;;;;;30.17;43.22;99208.34;5030923;28;20354;-56
2021/08/19 04:22:12;;;;;;;14.82;10.77;;;;;;;30.84;41.81;99227.06;5030947;28;20124;-56
2021/08/19 04:24:38;;;;;;;12.55;8.93;;;;;;;31.44;40.70;99213.59;5029194;28;20060;-53
2021/08/19 04:27:03;;;;;;;9.68;8.55;;;;;;;32.14;39.12;99225.94;5030915;28;20030;-52
2021/08/19 04:29:33;;;;;;;11.77;9.32;;;;;;;32.76;37.58;99214.56;5030688;28;21021;-57
2021/08/19 04:31:59;;;;;;;15.55;9.60;;;;;;;33.24;36.63;99213.13;5031061;28;20472;-53
2021/08/19 04:34:25;;;;;;;13.40;10.00;;;;;;;33.79;35.35;99221.25;5028895;28;20148;-52
2021/08/19 04:36:51;;;;;;;10.65;9.32;;;;;;;34.45;33.77;99215.22;5030708;28;20029;-57
2021/08/19 04:39:16;;;;;;;12.45;9.23;;;;;;;34.93;33.37;99211.50;5031053;28;20483;-52
2021/08/19 04:41:43;;;;;;;11.93;9.55;;;;;;;34.25;34.32;99234.94;5033364;28;20419;-56
2021/08/19 04:44:08;;;;;;;19.00;10.35;;;;;;;33.58;35.31;99217.88;5034838;28;20033;-54
2021/08/19 04:46:34;;;;;;;17.27;9.75;;;;;;;34.04;34.42;99229.63;5031371;28;20033;-50
2021/08/19 04:49:05;;;;;;;14.30;9.70;;;;;;;34.01;34.39;99230.22;5034776;28;20033;-52
2021/08/19 04:51:31;;;;;;;11.77;8.55;;;;;;;34.69;33.32;99228.25;5034548;28;20056;-53
2021/08/19 04:53:56;;;;;;;10.93;9.02;;;;;;;34.67;33.19;99236.06;5033984;28;20029;-56
2021/08/19 04:56:27;;;;;;;8.95;7.90;;;;;;;34.06;33.87;99239.31;5032762;28;20095;-54
2021/08/19 04:58:53;;;;;;;9.95;7.43;;;;;;;33.16;34.91;99235.94;5034504;28;20115;-51
2021/08/19 05:01:19;;;;;;;9.38;7.50;;;;;;;33.89;33.96;99238.94;5034360;28;20056;-55
2021/08/19 05:03:44;;;;;;;8.60;6.53;;;;;;;35.28;31.04;99229.88;5034502;28;20457;-53
2021/08/19 05:06:10;;;;;;;9.65;7.78;;;;;;;36.47;29.11;99228.50;5032555;28;20025;-52
2021/08/19 05:08:35;;;;;;;8.10;7.35;;;;;;;37.38;27.85;99227.00;5034241;28;20038;-55
2021/08/19 05:11:00;;;;;;;8.77;7.88;;;;;;;38.14;26.47;99231.72;5034596;28;20219;-55
2021/08/19 05:13:26;;;;;;;8.35;6.70;;;;;;;38.91;25.26;99234.16;5033816;28;20029;-56
2021/08/19 05:15:51;;;;;;;12.15;7.82;;;;;;;39.40;24.52;99229.56;5034170;28;20090;-49
2021/08/19 05:18:17;;;;;;;10.52;7.18;;;;;;;39.00;25.21;99227.75;5032218;28;20030;-55
2021/08/19 05:20:43;;;;;;;8.82;7.18;;;;;;;38.24;26.36;99232.53;5034065;28;20045;-63
2021/08/19 05:23:08;;;;;;;8.20;7.38;;;;;;;36.84;28.15;99208.19;5033949;28;20037;-54
2021/08/19 05:25:34;;;;;;;10.13;7.05;;;;;;;37.42;27.52;99223.25;5033946;28;20033;-51
2021/08/19 05:27:59;;;;;;;7.65;6.88;;;;;;;38.86;25.46;99220.31;5031908;28;20033;-52
2021/08/19 05:30:25;;;;;;;7.40;6.68;;;;;;;39.56;23.91;99222.28;5033285;28;20044;-50
2021/08/19 05:32:50;;;;;;;7.95;7.22;;;;;;;39.87;23.43;99215.59;5033467;28;20327;-51
2021/08/19 05:35:15;;;;;;;7.78;7.07;;;;;;;40.65;22.17;99218.28;5033798;28;20368;-54
2021/08/19 05:37:41;;;;;;;7.78;6.97;;;;;;;41.58;20.88;99206.03;5032178;28;20392;-53
2021/08/19 05:40:07;;;;;;;8.13;6.63;;;;;;;42.44;20.40;99212.94;5033039;28;20414;-51
2021/08/19 05:42:33;;;;;;;9.68;6.68;;;;;;;43.21;19.05;99215.13;5033472;28;20033;-57
2021/08/19 05:44:58;;;;;;;7.43;6.70;;;;;;;44.11;18.46;99216.69;5033674;28;20052;-57
2021/08/19 05:47:23;;;;;;;9.68;7.63;;;;;;;44.81;17.16;99212.25;5033347;28;20117;-54
2021/08/19 05:49:49;;;;;;;8.05;7.25;;;;;;;45.50;16.98;99205.13;5030881;28;20469;-56
2021/08/19 05:52:15;;;;;;;8.10;7.15;;;;;;;45.58;16.74;99212.56;5033027;28;20100;-57
2021/08/19 05:54:41;;;;;;;11.57;7.70;;;;;;;44.52;17.81;99219.28;5033681;28;20029;-49
2021/08/19 05:57:08;;;;;;;10.75;7.22;;;;;;;43.57;18.79;99228.22;5033262;28;20079;-54
2021/08/19 05:59:34;;;;;;;8.73;7.85;;;;;;;43.14;19.38;99221.38;5030991;28;20033;-53
2021/08/19 06:01:59;;;;;;;11.95;7.45;;;;;;;42.85;19.88;99220.53;5033290;28;20034;-56
2021/08/19 06:04:24;;;;;;;10.10;7.32;;;;;;;43.08;19.40;99222.81;5033536;28;20029;-53
2021/08/19 06:06:50;;;;;;;7.80;6.97;;;;;;;42.14;20.36;99230.00;5032973;28;20505;-54
2021/08/19 06:09:15;;;;;;;10.07;6.60;;;;;;;41.45;21.23;99224.03;5030895;28;20060;-58
2021/08/19 06:11:41;;;;;;;8.27;6.85;;;;;;;40.44;22.63;99218.28;5033197;28;20480;-53
2021/08/19 06:14:07;;;;;;;7.93;7.18;;;;;;;39.96;23.53;99221.16;5033104;28;20466;-54
2021/08/19 06:16:33;;;;;;;9.93;6.57;;;;;;;40.66;22.28;99217.09;5033083;28;20041;-53
2021/08/19 06:19:00;;;;;;;9.60;7.10;;;;;;;40.24;22.53;99212.25;5032696;28;20052;-56
2021/08/19 06:21:26;;;;;;;7.72;6.32;;;;;;;39.54;23.16;99215.34;5031671;28;20503;-54
2021/08/19 06:23:52;;;;;;;10.85;6.95;;;;;;;39.18;23.73;99218.19;5033114;28;20033;-53
2021/08/19 06:26:17;;;;;;;7.88;7.18;;;;;;;38.29;25.01;99229.59;5032892;28;20250;-58
2021/08/19 06:28:43;;;;;;;8.25;7.32;;;;;;;37.44;26.13;99220.16;5035376;28;20032;-56
2021/08/19 06:31:08;;;;;;;10.05;7.57;;;;;;;37.20;26.53;99216.53;5022600;28;20026;-56
2021/08/19 06:33:34;;;;;;;10.73;7.13;;;;;;;37.26;26.80;99220.03;5013189;28;20041;-54
2021/08/19 06:35:59;;;;;;;10.95;6.95;;;;;;;37.75;26.00;99222.16;5013151;28;20506;-55
2021/08/19 06:38:25;;;;;;;10.25;7.05;;;;;;;38.56;24.65;99225.75;5012604;28;20033;-56
2021/08/19 06:40:50;;;;;;;10.75;6.55;;;;;;;39.60;23.27;99223.25;5012530;28;20029;-54
2021/08/19 06:43:15;;;;;;;8.48;7.22;;;;;;;40.82;21.55;99231.38;5012725;28;20040;-55
2021/08/19 06:45:41;;;;;;;10.02;8.10;;;;;;;40.54;22.01;99226.28;5012793;28;20037;-56
2021/08/19 06:48:06;;;;;;;9.57;6.32;;;;;;;39.34;23.25;99226.91;5011180;28;20400;-53
2021/08/19 06:50:32;;;;;;;7.13;6.30;;;;;;;38.38;24.58;99230.44;5012845;28;20084;-55
2021/08/19 06:52:58;;;;;;;8.95;6.13;;;;;;;38.48;24.92;99240.53;5013745;28;20040;-58
2021/08/19 06:55:23;;;;;;;10.48;7.40;;;;;;;38.41;24.47;99243.78;5012214;28;20026;-56
2021/08/19 06:57:49;;;;;;;9.30;6.63;;;;;;;38.54;24.65;99244.81;5011986;28;20030;-59
2021/08/19 07:00:15;;;;;;;8.10;6.18;;;;;;;37.88;25.38;99218.44;5012082;28;20052;-55
2021/08/19 07:02:40;;;;;;;10.45;6.75;;;;;;;37.18;26.67;99223.59;5012194;28;20112;-55
2021/08/19 07:05:07;;;;;;;11.35;7.15;;;;;;;36.82;26.69;99243.94;5012101;28;20474;-53
2021/08/19 07:07:33;;;;;;;13.07;7.13;;;;;;;37.74;25.54;99240.88;5012154;28;20032;-54
2021/08/19 07:10:07;;;;;;;8.68;7.38;;;;;;;38.87;24.35;99237.94;5010737;28;20426;-56
2021/08/19 07:12:33;;;;;;;8.15;7.15;;;;;;;40.07;22.49;99237.56;5013256;28;20028;-61
2021/08/19 07:14:58;;;;;;;8.23;6.82;;;;;;;39.60;22.76;99217.63;5011885;28;20034;-54
2021/08/19 07:17:24;;;;;;;9.68;6.75;;;;;;;38.51;24.83;99244.63;5012072;28;20026;-54
2021/08/19 07:19:49;;;;;;;7.88;6.28;;;;;;;37.49;25.37;99225.63;5011661;28;20466;-61
2021/08/19 07:22:15;;;;;;;10.85;6.38;;;;;;;36.57;27.66;99237.81;5020687;28;20505;-58
2021/08/19 07:24:40;;;;;;;7.75;6.00;;;;;;;35.28;29.23;99249.38;5029235;28;20080;-57
2021/08/19 07:27:06;;;;;;;10.30;6.00;;;;;;;33.96;31.73;99249.69;5029462;28;20033;-54
2021/08/19 07:29:31;;;;;;;9.57;6.45;;;;;;;32.69;34.59;99250.09;5031388;28;20033;-57
2021/08/19 07:31:57;;;;;;;7.45;6.18;;;;;;;31.76;36.16;99248.47;5029343;28;20085;-58
2021/08/19 07:34:22;;;;;;;11.75;6.55;;;;;;;31.38;36.94;99263.69;5011883;28;20044;-58
2021/08/19 07:36:48;;;;;;;9.20;5.93;;;;;;;31.02;38.21;99256.97;5012098;28;20025;-58
2021/08/19 07:39:15;;;;;;;10.73;6.63;;;;;;;30.73;38.45;99249.16;5011645;28;20029;-58
2021/08/19 07:41:41;;;;;;;10.73;6.32;;;;;;;30.49;38.68;99254.28;5011662;28;20040;-57
2021/08/19 07:44:06;;;;;;;10.82;6.57;;;;;;;30.40;38.97;99259.53;5010636;28;20386;-56
2021/08/19 07:46:33;;;;;;;13.02;7.57;;;;;;;30.19;38.89;99256.66;5011504;28;20026;-58
2021/08/19 07:49:01;;;;;;;8.20;7.32;;;;;;;30.03;40.03;99268.72;5011725;28;20438;-57
2021/08/19 07:51:27;;;;;;;11.60;7.35;;;;;;;29.85;40.35;99262.50;5011683;28;20113;-56
2021/08/19 07:53:52;;;;;;;10.07;7.43;;;;;;;29.56;40.80;99251.81;5011576;28;20109;-59
2021/08/19 07:56:18;;;;;;;10.88;7.30;;;;;;;29.43;41.00;99255.03;5011661;28;20034;-58
2021/08/19 07:58:44;;;;;;;11.35;7.07;;;;;;;29.22;41.34;99254.81;5011823;28;20470;-56
2021/08/19 08:01:09;;;;;;;10.55;7.18;;;;;;;29.05;42.31;99254.91;5011765;28;20025;-58
2021/08/19 08:03:35;;;;;;;9.68;6.40;;;;;;;28.68;42.70;99228.88;5011341;28;20026;-56
2021/08/19 08:06:00;;;;;;;10.68;7.28;;;;;;;28.75;43.01;99250.72;5011519;28;20033;-58
2021/08/19 08:08:26;;;;;;;10.60;7.07;;;;;;;28.69;43.29;99243.50;5010802;28;20117;-59
2021/08/19 08:10:51;;;;;;;9.27;6.90;;;;;;;28.67;43.10;99254.78;5011908;28;20369;-58
2021/08/19 08:13:17;;;;;;;9.93;6.65;;;;;;;28.63;43.61;99248.13;5027461;28;20059;-55
2021/08/19 08:15:42;;;;;;;11.27;6.80;;;;;;;28.70;43.10;99248.78;5029710;28;20156;-57
2021/08/19 08:18:13;;;;;;;10.38;7.32;;;;;;;28.81;42.65;99248.91;5031220;28;20036;-54
2021/08/19 08:20:39;;;;;;;13.63;8.13;;;;;;;28.64;43.00;99247.88;5031135;28;20050;-51
2021/08/19 08:23:05;;;;;;;13.50;7.90;;;;;;;28.64;42.86;99249.78;5030942;28;20045;-52
2021/08/19 08:25:30;;;;;;;10.80;7.55;;;;;;;28.59;43.22;99246.97;5027912;28;20041;-54
2021/08/19 08:28:04;;;;;;;10.13;7.50;;;;;;;28.57;43.65;99255.47;5010821;28;20367;-61
2021/08/19 08:30:35;;;;;;;8.77;7.73;;;;;;;28.63;43.06;99248.13;5010846;28;20052;-55
2021/08/19 08:33:01;;;;;;;13.32;7.95;;;;;;;28.55;43.32;99251.34;5010304;28;20275;-53
2021/08/19 08:35:30;;;;;;;9.82;8.07;;;;;;;28.65;43.74;99252.28;5010272;28;20033;-54
2021/08/19 08:37:56;;;;;;;12.23;7.72;;;;;;;28.83;42.43;99246.72;5010723;28;20022;-53
2021/08/19 08:40:23;;;;;;;12.00;8.00;;;;;;;29.19;41.94;99250.66;5011079;28;20472;-56
2021/08/19 08:42:49;;;;;;;9.20;7.53;;;;;;;29.46;41.32;99243.47;5011214;28;20040;-55
2021/08/19 08:45:16;;;;;;;13.13;8.85;;;;;;;29.74;40.83;99244.22;5011230;28;20026;-55
2021/08/19 08:47:43;;;;;;;8.68;7.72;;;;;;;29.98;40.78;99246.59;5011214;28;20109;-58
2021/08/19 08:50:10;;;;;;;9.70;7.88;;;;;;;30.19;39.42;99247.53;5010604;28;20522;-54
2021/08/19 08:52:37;;;;;;;9.35;8.45;;;;;;;30.35;39.67;99246.53;5009595;28;20058;-58
2021/08/19 08:55:04;;;;;;;10.00;7.70;;;;;;;30.46;38.70;99239.09;5011062;28;20034;-54
2021/08/19 08:57:33;;;;;;;13.10;7.80;;;;;;;30.25;39.75;99232.66;5010814;28;20109;-57
2021/08/19 08:59:58;;;;;;;15.93;9.15;;;;;;;30.29;39.77;99235.72;5010935;28;20061;-54
2021/08/19 09:02:25;;;;;;;11.20;8.57;;;;;;;30.37;39.56;99232.44;5026499;28;20056;-59
2021/08/19 09:05:18;;;;;;;9.73;8.20;;;;;;;30.63;38.89;99225.09;5030129;28;20025;-58
2021/08/19 09:07:50;;;;;;;12.50;7.72;;;;;;;30.58;38.90;99225.06;5030474;28;20412;-55
2021/08/19 09:10:18;;;;;;;8.88;7.63;;;;;;;30.84;38.19;99225.16;5024264;28;20069;-56
2021/08/19 09:12:43;;;;;;;14.88;8.15;;;;;;;31.10;38.35;99219.66;5015681;28;20044;-56
2021/08/19 09:15:12;;;;;;;10.30;7.68;;;;;;;31.22;37.67;99222.19;5019713;28;20025;-55
2021/08/19 09:17:52;;;;;;;9.43;7.95;;;;;;;31.40;36.94;99225.50;5010989;28;20029;-57
2021/08/19 09:20:32;;;;;;;11.35;8.00;;;;;;;31.38;37.18;99219.41;5010251;28;20056;-54
2021/08/19 09:23:00;;;;;;;10.73;7.90;;;;;;;30.87;37.40;99202.50;5010546;28;20487;-57
2021/08/19 09:25:38;;;;;;;10.52;7.68;;;;;;;30.93;37.62;99225.44;5010770;28;20029;-53
2021/08/19 09:28:26;;;;;;;11.70;8.13;;;;;;;31.17;36.92;99220.19;5030574;28;20041;-59
2021/08/19 09:30:58;;;;;;;10.68;7.43;;;;;;;31.02;37.07;99225.75;5034072;28;20038;-54
2021/08/19 09:33:26;;;;;;;7.93;7.13;;;;;;;30.89;37.18;99225.16;5032817;28;20034;-65
2021/08/19 09:35:55;;;;;;;8.82;7.75;;;;;;;30.71;38.07;99217.38;5034009;28;20022;-57
2021/08/19 09:38:23;;;;;;;11.02;7.50;;;;;;;30.71;38.42;99220.97;5033941;28;20116;-53
2021/08/19 09:41:13;;;;;;;10.88;7.82;;;;;;;30.94;38.00;99229.88;5033501;28;20492;-54
2021/08/19 09:43:41;;;;;;;11.60;8.07;;;;;;;30.62;37.84;99217.06;5033170;28;20033;-58
2021/08/19 09:46:08;;;;;;;10.60;7.43;;;;;;;30.32;38.60;99204.81;5034074;28;20048;-54
2021/08/19 09:48:34;;;;;;;12.30;7.90;;;;;;;30.31;38.99;99219.72;5033333;28;20071;-56
2021/08/19 09:51:12;;;;;;;9.25;7.35;;;;;;;30.57;38.39;99222.56;5033347;28;20064;-62
2021/08/19 09:53:48;;;;;;;12.68;8.13;;;;;;;30.34;39.64;99222.78;5033593;28;20042;-56
2021/08/19 09:56:38;;;;;;;8.57;7.65;;;;;;;30.17;39.76;99231.25;5033454;28;20354;-57
2021/08/19 09:59:25;;;;;;;12.57;8.35;;;;;;;29.90;39.95;99221.16;5033133;28;20025;-55
2021/08/19 10:01:55;;;;;;;10.43;8.13;;;;;;;29.53;40.70;99232.19;5030352;28;20041;-53
2021/08/19 10:04:25;;;;;;;10.43;8.63;;;;;;;29.29;41.30;99230.63;5033528;28;20037;-56
2021/08/19 10:06:50;;;;;;;8.93;7.88;;;;;;;29.33;41.30;99222.66;5029506;28;20137;-62
2021/08/19 10:09:16;;;;;;;10.20;7.82;;;;;;;29.34;41.62;99224.34;5013167;28;20113;-52
2021/08/19 10:11:44;;;;;;;12.48;8.15;;;;;;;29.36;41.37;99236.75;5013074;28;20125;-57
2021/08/19 10:14:17;;;;;;;10.70;8.40;;;;;;;29.46;41.94;99232.44;5013172;28;20026;-58
2021/08/19 10:16:44;;;;;;;16.15;8.27;;;;;;;29.31;41.51;99225.66;5013042;28;20029;-53
2021/08/19 10:19:19;;;;;;;11.82;7.57;;;;;;;29.24;41.13;99225.06;5012393;28;20519;-52
2021/08/19 10:21:51;;;;;;;10.17;7.37;;;;;;;29.44;40.98;99232.69;5013016;28;20045;-53
2021/08/19 10:24:18;;;;;;;10.50;7.50;;;;;;;29.61;40.93;99238.06;5013071;28;20028;-55
2021/08/19 10:26:44;;;;;;;8.93;7.18;;;;;;;29.83;40.50;99217.78;5012869;28;20099;-53
2021/08/19 10:29:09;;;;;;;10.55;7.45;;;;;;;30.07;40.29;99214.63;5016752;28;20449;-52
2021/08/19 10:31:46;;;;;;;8.30;7.25;;;;;;;30.18;40.46;99221.03;5032632;28;20030;-51
2021/08/19 10:34:38;;;;;;;7.75;6.90;;;;;;;30.20;40.01;99225.19;5032621;28;20474;-53
2021/08/19 10:37:04;;;;;;;8.73;7.00;;;;;;;29.89;40.64;99219.47;5032981;28;20044;-55
2021/08/19 10:39:30;;;;;;;10.23;8.00;;;;;;;29.70;40.96;99208.06;5030993;28;20025;-53
2021/08/19 10:41:57;;;;;;;9.30;7.35;;;;;;;29.63;41.23;99204.72;5013161;28;20037;-54
2021/08/19 10:44:35;;;;;;;11.27;6.93;;;;;;;30.06;40.17;99224.88;5013274;28;20033;-54
2021/08/19 10:47:01;;;;;;;7.82;6.95;;;;;;;29.93;39.70;99220.63;5012820;28;20026;-57
2021/08/19 10:49:32;;;;;;;7.97;6.82;;;;;;;29.99;39.92;99226.97;5016656;28;20030;-53
2021/08/19 10:52:07;;;;;;;7.65;6.70;;;;;;;30.05;40.07;99214.06;5018216;28;20041;-53
2021/08/19 10:54:39;;;;;;;9.45;7.05;;;;;;;30.07;39.15;99220.16;5012498;28;20116;-56
2021/08/19 10:57:32;;;;;;;8.43;6.90;;;;;;;30.19;39.21;99214.41;5012824;28;20113;-55
2021/08/19 11:00:02;;;;;;;9.00;6.43;;;;;;;30.04;38.82;99220.69;5012315;28;20033;-55
2021/08/19 11:02:44;;;;;;;9.18;6.55;;;;;;;30.10;39.72;99213.28;5011900;28;20034;-55
2021/08/19 11:05:33;;;;;;;10.57;7.38;;;;;;;29.90;39.44;99212.88;5012465;28;20077;-58
2021/08/19 11:08:00;;;;;;;9.07;7.18;;;;;;;29.60;40.71;99214.34;5013681;28;20038;-56
2021/08/19 11:10:28;;;;;;;8.77;6.85;;;;;;;29.24;40.99;99172.69;5012098;28;20041;-54
2021/08/19 11:13:01;;;;;;;11.35;7.38;;;;;;;29.60;40.18;99217.09;5012575;28;20080;-64
2021/08/19 11:15:26;;;;;;;9.75;6.78;;;;;;;29.46;40.49;99204.88;5011803;28;20029;-56
2021/08/19 11:17:53;;;;;;;9.60;6.88;;;;;;;29.55;40.66;99228.09;5012336;28;20378;-56
2021/08/19 11:20:28;;;;;;;10.52;7.05;;;;;;;29.76;40.84;99215.25;5012216;28;20054;-58
2021/08/19 11:23:04;;;;;;;9.48;6.95;;;;;;;29.82;40.52;99224.41;5012004;28;20058;-67
2021/08/19 11:25:31;;;;;;;7.15;6.30;;;;;;;29.65;40.96;99221.81;5012034;28;20038;-55